sensor_id;sensor_type;location;lat;lon;timestamp;P1;durP1;ratioP1;P2;durP2;ratioP2
21030;SDS011;61072;47.808;7.636;2022-12-29T00:00:17;4.20;;;1.00;;
21030;SDS011;61072;47.808;7.636;2022-12-29T00:02:43;0.90;;;0.80;;
21030;SDS011;61072;47.808;7.636;2022-12-29T00:05:10;2.28;;;0.80;;
21030;SDS011;61072;47.808;7.636;2022-12-29T00:07:37;4.82;;;0.90;;
21030;SDS011;61072;47.808;7.636;2022-12-29T00:10:04;5.18;;;1.00;;
21030;SDS011;61072;47.808;7.636;2022-12-29T00:12:31;3.97;;;1.00;;
21030;SDS011;61072;47.808;7.636;2022-12-29T00:15:17;3.20;;;0.85;;
21030;SDS011;61072;47.808;7.636;2022-12-29T00:18:03;3.63;;;1.25;;
21030;SDS011;61072;47.808;7.636;2022-12-29T00:20:32;2.33;;;1.00;;
21030;SDS011;61072;47.808;7.636;2022-12-29T00:23:19;3.55;;;0.90;;
21030;SDS011;61072;47.808;7.636;2022-12-29T00:26:08;1.00;;;0.80;;
21030;SDS011;61072;47.808;7.636;2022-12-29T00:28:58;2.78;;;1.10;;
21030;SDS011;61072;47.808;7.636;2022-12-29T00:31:43;1.42;;;0.90;;
21030;SDS011;61072;47.808;7.636;2022-12-29T00:34:29;0.57;;;0.50;;
21030;SDS011;61072;47.808;7.636;2022-12-29T00:37:14;1.13;;;0.70;;
21030;SDS011;61072;47.808;7.636;2022-12-29T00:39:41;3.75;;;0.85;;
21030;SDS011;61072;47.808;7.636;2022-12-29T00:42:27;2.47;;;0.80;;
21030;SDS011;61072;47.808;7.636;2022-12-29T00:45:13;2.25;;;1.05;;
21030;SDS011;61072;47.808;7.636;2022-12-29T00:47:39;2.53;;;0.82;;
21030;SDS011;61072;47.808;7.636;2022-12-29T00:50:06;1.73;;;0.80;;
21030;SDS011;61072;47.808;7.636;2022-12-29T00:52:33;3.63;;;1.00;;
21030;SDS011;61072;47.808;7.636;2022-12-29T00:55:00;1.40;;;0.73;;
21030;SDS011;61072;47.808;7.636;2022-12-29T00:57:26;0.90;;;0.50;;
21030;SDS011;61072;47.808;7.636;2022-12-29T00:59:53;2.83;;;1.00;;
21030;SDS011;61072;47.808;7.636;2022-12-29T01:02:19;1.20;;;0.70;;
21030;SDS011;61072;47.808;7.636;2022-12-29T01:04:46;2.67;;;0.80;;
21030;SDS011;61072;47.808;7.636;2022-12-29T01:07:13;6.10;;;0.93;;
21030;SDS011;61072;47.808;7.636;2022-12-29T01:09:40;0.85;;;0.50;;
21030;SDS011;61072;47.808;7.636;2022-12-29T01:12:25;2.22;;;0.75;;
21030;SDS011;61072;47.808;7.636;2022-12-29T01:15:08;5.47;;;0.90;;
21030;SDS011;61072;47.808;7.636;2022-12-29T01:17:36;4.43;;;0.95;;
21030;SDS011;61072;47.808;7.636;2022-12-29T01:20:02;1.85;;;0.60;;
21030;SDS011;61072;47.808;7.636;2022-12-29T01:22:30;2.20;;;1.00;;
21030;SDS011;61072;47.808;7.636;2022-12-29T01:24:56;3.13;;;0.77;;
21030;SDS011;61072;47.808;7.636;2022-12-29T01:27:23;2.53;;;0.70;;
21030;SDS011;61072;47.808;7.636;2022-12-29T01:29:50;3.70;;;1.27;;
21030;SDS011;61072;47.808;7.636;2022-12-29T01:32:16;3.70;;;0.90;;
21030;SDS011;61072;47.808;7.636;2022-12-29T01:34:43;2.22;;;1.38;;
21030;SDS011;61072;47.808;7.636;2022-12-29T01:37:10;1.90;;;0.70;;
21030;SDS011;61072;47.808;7.636;2022-12-29T01:39:37;3.00;;;0.90;;
21030;SDS011;61072;47.808;7.636;2022-12-29T01:42:04;1.65;;;0.57;;
21030;SDS011;61072;47.808;7.636;2022-12-29T01:47:18;1.75;;;1.17;;
21030;SDS011;61072;47.808;7.636;2022-12-29T01:50:15;1.67;;;0.70;;
21030;SDS011;61072;47.808;7.636;2022-12-29T01:52:48;1.85;;;0.80;;
21030;SDS011;61072;47.808;7.636;2022-12-29T01:55:22;4.38;;;0.80;;
21030;SDS011;61072;47.808;7.636;2022-12-29T01:57:50;4.18;;;0.73;;
21030;SDS011;61072;47.808;7.636;2022-12-29T02:00:19;1.80;;;0.90;;
21030;SDS011;61072;47.808;7.636;2022-12-29T02:02:47;3.38;;;1.13;;
21030;SDS011;61072;47.808;7.636;2022-12-29T02:08:14;1.35;;;0.70;;
21030;SDS011;61072;47.808;7.636;2022-12-29T02:10:41;2.47;;;0.88;;
21030;SDS011;61072;47.808;7.636;2022-12-29T02:13:10;4.88;;;0.90;;
21030;SDS011;61072;47.808;7.636;2022-12-29T02:18:47;2.35;;;0.80;;
21030;SDS011;61072;47.808;7.636;2022-12-29T02:21:34;1.50;;;0.90;;
21030;SDS011;61072;47.808;7.636;2022-12-29T02:24:36;2.55;;;0.75;;
21030;SDS011;61072;47.808;7.636;2022-12-29T02:29:56;3.42;;;1.05;;
21030;SDS011;61072;47.808;7.636;2022-12-29T02:38:23;1.48;;;0.90;;
21030;SDS011;61072;47.808;7.636;2022-12-29T02:41:32;2.00;;;0.90;;
21030;SDS011;61072;47.808;7.636;2022-12-29T02:46:36;3.40;;;1.05;;
21030;SDS011;61072;47.808;7.636;2022-12-29T02:49:12;4.93;;;1.17;;
21030;SDS011;61072;47.808;7.636;2022-12-29T02:54:18;5.40;;;1.10;;
21030;SDS011;61072;47.808;7.636;2022-12-29T02:59:51;2.78;;;1.40;;
21030;SDS011;61072;47.808;7.636;2022-12-29T03:05:31;3.50;;;1.25;;
21030;SDS011;61072;47.808;7.636;2022-12-29T03:13:29;1.80;;;0.98;;
21030;SDS011;61072;47.808;7.636;2022-12-29T03:18:56;4.50;;;1.10;;
21030;SDS011;61072;47.808;7.636;2022-12-29T03:21:37;4.30;;;1.20;;
21030;SDS011;61072;47.808;7.636;2022-12-29T03:24:28;3.38;;;1.30;;
21030;SDS011;61072;47.808;7.636;2022-12-29T03:26:59;3.40;;;1.50;;
21030;SDS011;61072;47.808;7.636;2022-12-29T03:31:57;2.97;;;1.13;;
21030;SDS011;61072;47.808;7.636;2022-12-29T03:34:25;1.90;;;1.10;;
21030;SDS011;61072;47.808;7.636;2022-12-29T03:36:58;3.65;;;1.27;;
21030;SDS011;61072;47.808;7.636;2022-12-29T03:39:28;2.33;;;1.30;;
21030;SDS011;61072;47.808;7.636;2022-12-29T03:41:58;3.88;;;1.58;;
21030;SDS011;61072;47.808;7.636;2022-12-29T03:44:35;3.45;;;1.27;;
21030;SDS011;61072;47.808;7.636;2022-12-29T03:47:05;3.08;;;1.42;;
21030;SDS011;61072;47.808;7.636;2022-12-29T03:49:33;3.05;;;1.80;;
21030;SDS011;61072;47.808;7.636;2022-12-29T03:52:00;2.47;;;1.33;;
21030;SDS011;61072;47.808;7.636;2022-12-29T03:54:26;3.72;;;1.80;;
21030;SDS011;61072;47.808;7.636;2022-12-29T03:56:53;4.97;;;1.58;;
21030;SDS011;61072;47.808;7.636;2022-12-29T03:59:20;3.83;;;1.80;;
21030;SDS011;61072;47.808;7.636;2022-12-29T04:01:47;3.10;;;1.50;;
21030;SDS011;61072;47.808;7.636;2022-12-29T04:04:14;5.40;;;2.08;;
21030;SDS011;61072;47.808;7.636;2022-12-29T04:06:42;4.45;;;1.60;;
21030;SDS011;61072;47.808;7.636;2022-12-29T04:09:09;6.70;;;1.60;;
21030;SDS011;61072;47.808;7.636;2022-12-29T04:11:36;4.05;;;1.50;;
21030;SDS011;61072;47.808;7.636;2022-12-29T04:14:03;4.88;;;1.80;;
21030;SDS011;61072;47.808;7.636;2022-12-29T04:16:30;3.28;;;1.50;;
21030;SDS011;61072;47.808;7.636;2022-12-29T04:18:57;4.05;;;1.50;;
21030;SDS011;61072;47.808;7.636;2022-12-29T04:21:23;3.35;;;1.38;;
21030;SDS011;61072;47.808;7.636;2022-12-29T04:23:50;4.60;;;1.60;;
21030;SDS011;61072;47.808;7.636;2022-12-29T04:26:17;4.28;;;1.40;;
21030;SDS011;61072;47.808;7.636;2022-12-29T04:28:43;3.10;;;1.48;;
21030;SDS011;61072;47.808;7.636;2022-12-29T04:31:10;3.45;;;1.15;;
21030;SDS011;61072;47.808;7.636;2022-12-29T04:33:37;2.88;;;1.73;;
21030;SDS011;61072;47.808;7.636;2022-12-29T04:36:03;4.28;;;1.60;;
21030;SDS011;61072;47.808;7.636;2022-12-29T04:38:30;6.20;;;1.98;;
21030;SDS011;61072;47.808;7.636;2022-12-29T04:41:00;2.58;;;1.30;;
21030;SDS011;61072;47.808;7.636;2022-12-29T04:43:27;2.15;;;1.50;;
21030;SDS011;61072;47.808;7.636;2022-12-29T04:45:55;4.43;;;1.63;;
21030;SDS011;61072;47.808;7.636;2022-12-29T04:48:21;4.18;;;1.63;;
21030;SDS011;61072;47.808;7.636;2022-12-29T04:50:48;5.88;;;1.38;;
21030;SDS011;61072;47.808;7.636;2022-12-29T04:53:16;2.92;;;1.20;;
21030;SDS011;61072;47.808;7.636;2022-12-29T04:55:43;3.50;;;1.15;;
21030;SDS011;61072;47.808;7.636;2022-12-29T04:58:10;4.18;;;1.27;;
21030;SDS011;61072;47.808;7.636;2022-12-29T05:00:42;3.65;;;1.10;;
21030;SDS011;61072;47.808;7.636;2022-12-29T05:03:09;2.72;;;1.13;;
21030;SDS011;61072;47.808;7.636;2022-12-29T05:05:36;2.50;;;1.10;;
21030;SDS011;61072;47.808;7.636;2022-12-29T05:08:03;2.05;;;1.25;;
21030;SDS011;61072;47.808;7.636;2022-12-29T05:10:29;1.55;;;1.17;;
21030;SDS011;61072;47.808;7.636;2022-12-29T05:12:57;2.30;;;1.08;;
21030;SDS011;61072;47.808;7.636;2022-12-29T05:15:24;2.50;;;0.98;;
21030;SDS011;61072;47.808;7.636;2022-12-29T05:17:50;2.22;;;1.02;;
21030;SDS011;61072;47.808;7.636;2022-12-29T05:20:18;3.35;;;0.93;;
21030;SDS011;61072;47.808;7.636;2022-12-29T05:22:45;5.15;;;1.00;;
21030;SDS011;61072;47.808;7.636;2022-12-29T05:25:11;1.17;;;0.90;;
21030;SDS011;61072;47.808;7.636;2022-12-29T05:27:38;3.78;;;1.40;;
21030;SDS011;61072;47.808;7.636;2022-12-29T05:30:05;2.78;;;1.17;;
21030;SDS011;61072;47.808;7.636;2022-12-29T05:32:32;2.67;;;0.95;;
21030;SDS011;61072;47.808;7.636;2022-12-29T05:34:59;2.47;;;1.30;;
21030;SDS011;61072;47.808;7.636;2022-12-29T05:37:26;2.90;;;1.00;;
21030;SDS011;61072;47.808;7.636;2022-12-29T05:39:52;2.17;;;1.00;;
21030;SDS011;61072;47.808;7.636;2022-12-29T05:42:19;1.98;;;0.90;;
21030;SDS011;61072;47.808;7.636;2022-12-29T05:44:46;1.80;;;1.20;;
21030;SDS011;61072;47.808;7.636;2022-12-29T05:47:12;3.63;;;1.02;;
21030;SDS011;61072;47.808;7.636;2022-12-29T05:49:39;2.47;;;0.93;;
21030;SDS011;61072;47.808;7.636;2022-12-29T05:52:06;2.95;;;1.25;;
21030;SDS011;61072;47.808;7.636;2022-12-29T05:54:33;3.03;;;1.00;;
21030;SDS011;61072;47.808;7.636;2022-12-29T05:56:59;4.30;;;1.30;;
21030;SDS011;61072;47.808;7.636;2022-12-29T05:59:26;2.33;;;1.10;;
21030;SDS011;61072;47.808;7.636;2022-12-29T06:01:52;2.65;;;1.20;;
21030;SDS011;61072;47.808;7.636;2022-12-29T06:04:19;1.30;;;0.90;;
21030;SDS011;61072;47.808;7.636;2022-12-29T06:06:46;3.65;;;1.20;;
21030;SDS011;61072;47.808;7.636;2022-12-29T06:09:13;2.17;;;0.85;;
21030;SDS011;61072;47.808;7.636;2022-12-29T06:11:39;1.75;;;1.13;;
21030;SDS011;61072;47.808;7.636;2022-12-29T06:14:06;2.53;;;1.13;;
21030;SDS011;61072;47.808;7.636;2022-12-29T06:16:33;5.30;;;1.48;;
21030;SDS011;61072;47.808;7.636;2022-12-29T06:18:59;2.85;;;1.20;;
21030;SDS011;61072;47.808;7.636;2022-12-29T06:21:26;5.75;;;1.40;;
21030;SDS011;61072;47.808;7.636;2022-12-29T06:23:53;2.58;;;1.27;;
21030;SDS011;61072;47.808;7.636;2022-12-29T06:26:20;3.92;;;1.10;;
21030;SDS011;61072;47.808;7.636;2022-12-29T06:28:47;3.08;;;1.15;;
21030;SDS011;61072;47.808;7.636;2022-12-29T06:31:13;1.90;;;1.08;;
21030;SDS011;61072;47.808;7.636;2022-12-29T06:33:40;2.80;;;0.88;;
21030;SDS011;61072;47.808;7.636;2022-12-29T06:36:07;1.88;;;0.80;;
21030;SDS011;61072;47.808;7.636;2022-12-29T06:38:33;2.97;;;1.20;;
21030;SDS011;61072;47.808;7.636;2022-12-29T06:41:01;2.10;;;0.98;;
21030;SDS011;61072;47.808;7.636;2022-12-29T06:43:28;3.03;;;1.00;;
21030;SDS011;61072;47.808;7.636;2022-12-29T06:45:56;2.08;;;0.95;;
21030;SDS011;61072;47.808;7.636;2022-12-29T06:48:23;2.10;;;1.10;;
21030;SDS011;61072;47.808;7.636;2022-12-29T06:50:49;2.15;;;0.93;;
21030;SDS011;61072;47.808;7.636;2022-12-29T06:53:16;1.38;;;0.82;;
21030;SDS011;61072;47.808;7.636;2022-12-29T06:55:43;3.30;;;0.90;;
21030;SDS011;61072;47.808;7.636;2022-12-29T06:58:09;1.15;;;0.73;;
21030;SDS011;61072;47.808;7.636;2022-12-29T07:00:36;2.75;;;1.05;;
21030;SDS011;61072;47.808;7.636;2022-12-29T07:03:03;1.83;;;0.80;;
21030;SDS011;61072;47.808;7.636;2022-12-29T07:05:30;2.53;;;0.98;;
21030;SDS011;61072;47.808;7.636;2022-12-29T07:07:58;3.92;;;0.95;;
21030;SDS011;61072;47.808;7.636;2022-12-29T07:10:25;2.28;;;0.90;;
21030;SDS011;61072;47.808;7.636;2022-12-29T07:12:52;2.25;;;0.90;;
21030;SDS011;61072;47.808;7.636;2022-12-29T07:15:19;0.90;;;0.70;;
21030;SDS011;61072;47.808;7.636;2022-12-29T07:17:46;2.83;;;0.80;;
21030;SDS011;61072;47.808;7.636;2022-12-29T07:20:12;2.22;;;1.05;;
21030;SDS011;61072;47.808;7.636;2022-12-29T07:22:39;3.13;;;0.88;;
21030;SDS011;61072;47.808;7.636;2022-12-29T07:25:06;1.20;;;0.80;;
21030;SDS011;61072;47.808;7.636;2022-12-29T07:27:33;3.30;;;1.15;;
21030;SDS011;61072;47.808;7.636;2022-12-29T07:29:59;1.88;;;0.65;;
21030;SDS011;61072;47.808;7.636;2022-12-29T07:32:26;0.85;;;0.60;;
21030;SDS011;61072;47.808;7.636;2022-12-29T07:34:53;1.25;;;0.55;;
21030;SDS011;61072;47.808;7.636;2022-12-29T07:37:20;0.77;;;0.55;;
21030;SDS011;61072;47.808;7.636;2022-12-29T07:39:46;1.02;;;0.60;;
21030;SDS011;61072;47.808;7.636;2022-12-29T07:42:13;3.08;;;0.80;;
21030;SDS011;61072;47.808;7.636;2022-12-29T07:44:40;2.28;;;0.95;;
21030;SDS011;61072;47.808;7.636;2022-12-29T07:47:06;4.90;;;1.75;;
21030;SDS011;61072;47.808;7.636;2022-12-29T07:49:33;1.27;;;0.63;;
21030;SDS011;61072;47.808;7.636;2022-12-29T07:52:00;1.83;;;0.93;;
21030;SDS011;61072;47.808;7.636;2022-12-29T07:54:26;1.63;;;0.77;;
21030;SDS011;61072;47.808;7.636;2022-12-29T07:56:53;1.83;;;0.90;;
21030;SDS011;61072;47.808;7.636;2022-12-29T07:59:20;1.65;;;0.80;;
21030;SDS011;61072;47.808;7.636;2022-12-29T08:01:46;2.85;;;0.90;;
21030;SDS011;61072;47.808;7.636;2022-12-29T08:04:13;2.13;;;1.10;;
21030;SDS011;61072;47.808;7.636;2022-12-29T08:06:40;3.83;;;2.00;;
21030;SDS011;61072;47.808;7.636;2022-12-29T08:09:07;2.38;;;1.20;;
21030;SDS011;61072;47.808;7.636;2022-12-29T08:11:43;2.55;;;1.02;;
21030;SDS011;61072;47.808;7.636;2022-12-29T08:14:10;3.25;;;1.15;;
21030;SDS011;61072;47.808;7.636;2022-12-29T08:16:37;2.22;;;0.90;;
21030;SDS011;61072;47.808;7.636;2022-12-29T08:19:03;1.13;;;0.90;;
21030;SDS011;61072;47.808;7.636;2022-12-29T08:21:31;2.00;;;0.98;;
21030;SDS011;61072;47.808;7.636;2022-12-29T08:23:57;2.50;;;1.33;;
21030;SDS011;61072;47.808;7.636;2022-12-29T08:26:25;1.63;;;0.75;;
21030;SDS011;61072;47.808;7.636;2022-12-29T08:28:52;2.42;;;0.63;;
21030;SDS011;61072;47.808;7.636;2022-12-29T08:31:20;0.90;;;0.65;;
21030;SDS011;61072;47.808;7.636;2022-12-29T08:33:47;1.27;;;0.85;;
21030;SDS011;61072;47.808;7.636;2022-12-29T08:36:13;2.15;;;0.60;;
21030;SDS011;61072;47.808;7.636;2022-12-29T08:38:40;2.03;;;0.80;;
21030;SDS011;61072;47.808;7.636;2022-12-29T08:41:07;2.45;;;1.17;;
21030;SDS011;61072;47.808;7.636;2022-12-29T08:43:34;0.90;;;0.90;;
21030;SDS011;61072;47.808;7.636;2022-12-29T08:46:00;2.10;;;1.00;;
21030;SDS011;61072;47.808;7.636;2022-12-29T08:48:28;3.17;;;1.00;;
21030;SDS011;61072;47.808;7.636;2022-12-29T08:50:54;3.17;;;0.82;;
21030;SDS011;61072;47.808;7.636;2022-12-29T08:53:21;3.88;;;0.80;;
21030;SDS011;61072;47.808;7.636;2022-12-29T08:55:54;2.70;;;0.60;;
21030;SDS011;61072;47.808;7.636;2022-12-29T08:58:30;1.60;;;0.85;;
21030;SDS011;61072;47.808;7.636;2022-12-29T09:00:57;4.20;;;1.63;;
21030;SDS011;61072;47.808;7.636;2022-12-29T09:03:24;1.55;;;0.90;;
21030;SDS011;61072;47.808;7.636;2022-12-29T09:06:12;4.75;;;1.05;;
21030;SDS011;61072;47.808;7.636;2022-12-29T09:08:39;2.75;;;0.90;;
21030;SDS011;61072;47.808;7.636;2022-12-29T09:13:46;2.28;;;0.82;;
21030;SDS011;61072;47.808;7.636;2022-12-29T09:16:13;2.55;;;0.80;;
21030;SDS011;61072;47.808;7.636;2022-12-29T09:18:41;2.70;;;0.80;;
21030;SDS011;61072;47.808;7.636;2022-12-29T09:21:09;1.63;;;0.90;;
21030;SDS011;61072;47.808;7.636;2022-12-29T09:23:38;4.53;;;1.20;;
21030;SDS011;61072;47.808;7.636;2022-12-29T09:26:05;1.65;;;1.00;;
21030;SDS011;61072;47.808;7.636;2022-12-29T09:28:33;1.52;;;0.88;;
21030;SDS011;61072;47.808;7.636;2022-12-29T09:31:00;3.63;;;1.33;;
21030;SDS011;61072;47.808;7.636;2022-12-29T09:33:27;3.28;;;1.33;;
21030;SDS011;61072;47.808;7.636;2022-12-29T09:35:55;2.80;;;0.98;;
21030;SDS011;61072;47.808;7.636;2022-12-29T09:38:23;3.00;;;1.30;;
21030;SDS011;61072;47.808;7.636;2022-12-29T09:40:51;4.85;;;1.20;;
21030;SDS011;61072;47.808;7.636;2022-12-29T09:49:05;3.17;;;1.40;;
21030;SDS011;61072;47.808;7.636;2022-12-29T09:51:34;2.58;;;1.55;;
21030;SDS011;61072;47.808;7.636;2022-12-29T09:54:10;7.22;;;1.92;;
21030;SDS011;61072;47.808;7.636;2022-12-29T09:56:53;2.60;;;1.80;;
21030;SDS011;61072;47.808;7.636;2022-12-29T09:59:21;3.58;;;2.17;;
21030;SDS011;61072;47.808;7.636;2022-12-29T10:02:12;4.68;;;1.50;;
21030;SDS011;61072;47.808;7.636;2022-12-29T10:04:49;3.38;;;1.25;;
21030;SDS011;61072;47.808;7.636;2022-12-29T10:10:12;3.53;;;1.23;;
21030;SDS011;61072;47.808;7.636;2022-12-29T10:21:08;2.08;;;1.17;;
21030;SDS011;61072;47.808;7.636;2022-12-29T10:23:50;3.92;;;1.10;;
21030;SDS011;61072;47.808;7.636;2022-12-29T10:26:20;3.65;;;1.05;;
21030;SDS011;61072;47.808;7.636;2022-12-29T10:28:57;1.23;;;1.00;;
21030;SDS011;61072;47.808;7.636;2022-12-29T10:31:34;3.67;;;1.17;;
21030;SDS011;61072;47.808;7.636;2022-12-29T10:34:21;4.75;;;1.25;;
21030;SDS011;61072;47.808;7.636;2022-12-29T10:36:49;2.30;;;1.10;;
21030;SDS011;61072;47.808;7.636;2022-12-29T10:44:53;2.17;;;1.20;;
21030;SDS011;61072;47.808;7.636;2022-12-29T10:47:22;4.20;;;1.17;;
21030;SDS011;61072;47.808;7.636;2022-12-29T10:49:55;6.00;;;1.25;;
21030;SDS011;61072;47.808;7.636;2022-12-29T10:52:24;2.38;;;1.10;;
21030;SDS011;61072;47.808;7.636;2022-12-29T10:54:59;1.63;;;0.80;;
21030;SDS011;61072;47.808;7.636;2022-12-29T10:57:32;1.75;;;0.80;;
21030;SDS011;61072;47.808;7.636;2022-12-29T11:00:00;4.95;;;1.30;;
21030;SDS011;61072;47.808;7.636;2022-12-29T11:02:42;3.30;;;1.30;;
21030;SDS011;61072;47.808;7.636;2022-12-29T11:05:31;1.23;;;1.00;;
21030;SDS011;61072;47.808;7.636;2022-12-29T11:08:22;2.30;;;1.60;;
21030;SDS011;61072;47.808;7.636;2022-12-29T11:11:12;2.72;;;1.65;;
21030;SDS011;61072;47.808;7.636;2022-12-29T11:13:51;2.15;;;1.23;;
21030;SDS011;61072;47.808;7.636;2022-12-29T11:16:29;3.47;;;0.88;;
21030;SDS011;61072;47.808;7.636;2022-12-29T11:18:58;4.60;;;1.35;;
21030;SDS011;61072;47.808;7.636;2022-12-29T11:21:26;2.85;;;1.13;;
21030;SDS011;61072;47.808;7.636;2022-12-29T11:23:58;2.08;;;1.23;;
21030;SDS011;61072;47.808;7.636;2022-12-29T11:26:32;3.33;;;1.23;;
21030;SDS011;61072;47.808;7.636;2022-12-29T11:29:17;3.15;;;1.10;;
21030;SDS011;61072;47.808;7.636;2022-12-29T11:31:54;2.58;;;0.85;;
21030;SDS011;61072;47.808;7.636;2022-12-29T11:36:53;2.08;;;0.85;;
21030;SDS011;61072;47.808;7.636;2022-12-29T11:41:58;1.75;;;0.82;;
21030;SDS011;61072;47.808;7.636;2022-12-29T11:44:26;3.00;;;1.20;;
21030;SDS011;61072;47.808;7.636;2022-12-29T11:46:53;1.50;;;1.10;;
21030;SDS011;61072;47.808;7.636;2022-12-29T11:49:22;2.17;;;1.20;;
21030;SDS011;61072;47.808;7.636;2022-12-29T11:51:52;4.32;;;1.40;;
21030;SDS011;61072;47.808;7.636;2022-12-29T11:54:27;2.53;;;1.10;;
21030;SDS011;61072;47.808;7.636;2022-12-29T11:56:58;2.78;;;1.80;;
21030;SDS011;61072;47.808;7.636;2022-12-29T11:59:40;3.45;;;1.40;;
21030;SDS011;61072;47.808;7.636;2022-12-29T12:02:31;2.22;;;1.00;;
21030;SDS011;61072;47.808;7.636;2022-12-29T12:08:38;4.93;;;1.00;;
21030;SDS011;61072;47.808;7.636;2022-12-29T12:11:37;2.00;;;1.15;;
21030;SDS011;61072;47.808;7.636;2022-12-29T12:14:22;4.38;;;1.40;;
21030;SDS011;61072;47.808;7.636;2022-12-29T12:16:54;2.67;;;1.05;;
21030;SDS011;61072;47.808;7.636;2022-12-29T12:19:31;2.38;;;0.90;;
21030;SDS011;61072;47.808;7.636;2022-12-29T12:22:03;2.85;;;1.05;;
21030;SDS011;61072;47.808;7.636;2022-12-29T12:24:39;1.65;;;0.88;;
21030;SDS011;61072;47.808;7.636;2022-12-29T12:27:12;2.28;;;1.30;;
21030;SDS011;61072;47.808;7.636;2022-12-29T12:29:56;1.92;;;0.90;;
21030;SDS011;61072;47.808;7.636;2022-12-29T12:35:14;5.13;;;2.00;;
21030;SDS011;61072;47.808;7.636;2022-12-29T12:40:40;1.63;;;1.15;;
21030;SDS011;61072;47.808;7.636;2022-12-29T13:01:58;2.50;;;1.40;;
21030;SDS011;61072;47.808;7.636;2022-12-29T13:05:24;2.75;;;1.30;;
21030;SDS011;61072;47.808;7.636;2022-12-29T13:22:06;4.40;;;1.42;;
21030;SDS011;61072;47.808;7.636;2022-12-29T13:24:50;3.40;;;1.33;;
21030;SDS011;61072;47.808;7.636;2022-12-29T13:30:20;3.63;;;2.50;;
21030;SDS011;61072;47.808;7.636;2022-12-29T13:32:53;5.65;;;2.40;;
21030;SDS011;61072;47.808;7.636;2022-12-29T13:40:59;3.15;;;1.40;;
21030;SDS011;61072;47.808;7.636;2022-12-29T13:43:31;4.13;;;1.70;;
21030;SDS011;61072;47.808;7.636;2022-12-29T13:46:05;4.38;;;1.42;;
21030;SDS011;61072;47.808;7.636;2022-12-29T13:49:21;6.95;;;1.60;;
21030;SDS011;61072;47.808;7.636;2022-12-29T13:51:27;1.67;;;1.13;;
21030;SDS011;61072;47.808;7.636;2022-12-29T13:56:48;3.17;;;1.00;;
21030;SDS011;61072;47.808;7.636;2022-12-29T14:02:19;3.60;;;1.60;;
21030;SDS011;61072;47.808;7.636;2022-12-29T14:05:00;4.13;;;1.67;;
21030;SDS011;61072;47.808;7.636;2022-12-29T14:07:35;5.57;;;1.73;;
21030;SDS011;61072;47.808;7.636;2022-12-29T14:10:04;2.95;;;1.10;;
21030;SDS011;61072;47.808;7.636;2022-12-29T14:12:41;3.17;;;1.10;;
21030;SDS011;61072;47.808;7.636;2022-12-29T14:17:39;1.77;;;1.35;;
21030;SDS011;61072;47.808;7.636;2022-12-29T14:20:17;3.83;;;1.35;;
21030;SDS011;61072;47.808;7.636;2022-12-29T14:23:00;4.60;;;1.25;;
21030;SDS011;61072;47.808;7.636;2022-12-29T14:28:31;2.28;;;1.30;;
21030;SDS011;61072;47.808;7.636;2022-12-29T14:31:03;3.05;;;1.42;;
21030;SDS011;61072;47.808;7.636;2022-12-29T14:33:32;4.25;;;1.27;;
21030;SDS011;61072;47.808;7.636;2022-12-29T14:36:19;3.10;;;1.40;;
21030;SDS011;61072;47.808;7.636;2022-12-29T14:38:48;3.75;;;1.45;;
21030;SDS011;61072;47.808;7.636;2022-12-29T14:41:16;3.22;;;1.10;;
21030;SDS011;61072;47.808;7.636;2022-12-29T14:46:43;2.50;;;1.30;;
21030;SDS011;61072;47.808;7.636;2022-12-29T14:49:15;3.83;;;1.42;;
21030;SDS011;61072;47.808;7.636;2022-12-29T14:51:45;3.40;;;1.55;;
21030;SDS011;61072;47.808;7.636;2022-12-29T14:56:59;3.92;;;1.70;;
21030;SDS011;61072;47.808;7.636;2022-12-29T14:59:28;4.20;;;2.30;;
21030;SDS011;61072;47.808;7.636;2022-12-29T15:01:58;5.68;;;1.63;;
21030;SDS011;61072;47.808;7.636;2022-12-29T15:04:32;3.97;;;2.03;;
21030;SDS011;61072;47.808;7.636;2022-12-29T15:07:02;3.38;;;2.08;;
21030;SDS011;61072;47.808;7.636;2022-12-29T15:09:34;4.47;;;2.28;;
21030;SDS011;61072;47.808;7.636;2022-12-29T15:14:49;7.07;;;2.05;;
21030;SDS011;61072;47.808;7.636;2022-12-29T15:17:54;3.22;;;1.40;;
21030;SDS011;61072;47.808;7.636;2022-12-29T15:20:22;4.07;;;1.73;;
21030;SDS011;61072;47.808;7.636;2022-12-29T15:25:26;5.13;;;2.45;;
21030;SDS011;61072;47.808;7.636;2022-12-29T15:27:53;3.58;;;1.75;;
21030;SDS011;61072;47.808;7.636;2022-12-29T15:30:27;2.70;;;1.90;;
21030;SDS011;61072;47.808;7.636;2022-12-29T15:32:54;4.13;;;1.70;;
21030;SDS011;61072;47.808;7.636;2022-12-29T15:35:32;3.25;;;1.67;;
21030;SDS011;61072;47.808;7.636;2022-12-29T15:38:01;5.47;;;2.75;;
21030;SDS011;61072;47.808;7.636;2022-12-29T15:40:40;4.75;;;2.50;;
21030;SDS011;61072;47.808;7.636;2022-12-29T15:45:44;7.60;;;1.83;;
21030;SDS011;61072;47.808;7.636;2022-12-29T15:48:14;4.72;;;1.95;;
21030;SDS011;61072;47.808;7.636;2022-12-29T15:50:45;7.40;;;2.22;;
21030;SDS011;61072;47.808;7.636;2022-12-29T15:53:15;6.00;;;1.77;;
21030;SDS011;61072;47.808;7.636;2022-12-29T15:55:55;3.83;;;2.30;;
21030;SDS011;61072;47.808;7.636;2022-12-29T15:58:29;6.32;;;2.00;;
21030;SDS011;61072;47.808;7.636;2022-12-29T16:01:01;2.30;;;1.40;;
21030;SDS011;61072;47.808;7.636;2022-12-29T16:03:29;5.30;;;1.52;;
21030;SDS011;61072;47.808;7.636;2022-12-29T16:06:10;3.58;;;1.42;;
21030;SDS011;61072;47.808;7.636;2022-12-29T16:08:55;7.38;;;1.70;;
21030;SDS011;61072;47.808;7.636;2022-12-29T16:11:27;3.95;;;2.10;;
21030;SDS011;61072;47.808;7.636;2022-12-29T16:14:13;5.20;;;1.60;;
21030;SDS011;61072;47.808;7.636;2022-12-29T16:16:46;4.40;;;1.95;;
21030;SDS011;61072;47.808;7.636;2022-12-29T16:19:26;3.97;;;1.52;;
21030;SDS011;61072;47.808;7.636;2022-12-29T16:21:55;2.08;;;1.25;;
21030;SDS011;61072;47.808;7.636;2022-12-29T16:24:25;5.85;;;1.67;;
21030;SDS011;61072;47.808;7.636;2022-12-29T16:27:07;5.57;;;1.75;;
21030;SDS011;61072;47.808;7.636;2022-12-29T16:29:44;5.95;;;2.40;;
21030;SDS011;61072;47.808;7.636;2022-12-29T16:32:29;3.92;;;1.77;;
21030;SDS011;61072;47.808;7.636;2022-12-29T16:35:16;3.63;;;1.60;;
21030;SDS011;61072;47.808;7.636;2022-12-29T16:37:43;4.38;;;1.70;;
21030;SDS011;61072;47.808;7.636;2022-12-29T16:42:45;2.13;;;1.40;;
21030;SDS011;61072;47.808;7.636;2022-12-29T16:50:34;3.97;;;1.60;;
21030;SDS011;61072;47.808;7.636;2022-12-29T16:53:03;3.92;;;1.60;;
21030;SDS011;61072;47.808;7.636;2022-12-29T16:55:31;5.32;;;2.05;;
21030;SDS011;61072;47.808;7.636;2022-12-29T16:57:58;8.15;;;6.10;;
21030;SDS011;61072;47.808;7.636;2022-12-29T17:00:27;5.97;;;3.00;;
21030;SDS011;61072;47.808;7.636;2022-12-29T17:03:00;5.80;;;2.85;;
21030;SDS011;61072;47.808;7.636;2022-12-29T17:05:28;4.68;;;2.70;;
21030;SDS011;61072;47.808;7.636;2022-12-29T17:07:55;3.22;;;1.83;;
21030;SDS011;61072;47.808;7.636;2022-12-29T17:10:26;2.70;;;1.58;;
21030;SDS011;61072;47.808;7.636;2022-12-29T17:13:13;5.75;;;1.70;;
21030;SDS011;61072;47.808;7.636;2022-12-29T17:15:40;6.68;;;1.75;;
21030;SDS011;61072;47.808;7.636;2022-12-29T17:18:06;2.80;;;1.58;;
21030;SDS011;61072;47.808;7.636;2022-12-29T17:20:39;4.07;;;1.80;;
21030;SDS011;61072;47.808;7.636;2022-12-29T17:23:11;4.72;;;1.50;;
21030;SDS011;61072;47.808;7.636;2022-12-29T17:25:47;2.65;;;1.15;;
21030;SDS011;61072;47.808;7.636;2022-12-29T17:28:24;2.92;;;1.40;;
21030;SDS011;61072;47.808;7.636;2022-12-29T17:30:58;1.75;;;1.40;;
21030;SDS011;61072;47.808;7.636;2022-12-29T17:33:27;3.08;;;2.20;;
21030;SDS011;61072;47.808;7.636;2022-12-29T17:36:00;1.80;;;1.33;;
21030;SDS011;61072;47.808;7.636;2022-12-29T17:38:28;2.22;;;1.48;;
21030;SDS011;61072;47.808;7.636;2022-12-29T17:40:56;2.60;;;1.38;;
21030;SDS011;61072;47.808;7.636;2022-12-29T17:43:24;1.25;;;1.15;;
21030;SDS011;61072;47.808;7.636;2022-12-29T17:45:59;1.70;;;1.08;;